createdAt,value
2023-02-22T00:00:50.924Z,89.45
2023-02-22T00:03:07.417Z,89.47
2023-02-22T00:05:25.674Z,89.45
2023-02-22T00:07:42.074Z,89.58
2023-02-22T00:09:58.359Z,89.42
2023-02-22T00:12:14.765Z,89.44
2023-02-22T00:14:31.258Z,89.80
2023-02-22T00:16:47.652Z,89.97
2023-02-22T00:19:03.943Z,89.82
2023-02-22T00:21:20.230Z,90.26
2023-02-22T00:23:36.579Z,90.04
2023-02-22T00:25:52.858Z,89.99
2023-02-22T00:28:09.149Z,89.88
2023-02-22T00:30:25.471Z,89.86
2023-02-22T00:32:41.792Z,89.88
2023-02-22T00:34:58.171Z,90.05
2023-02-22T00:37:14.470Z,89.90
2023-02-22T00:39:30.816Z,89.95
2023-02-22T00:41:47.146Z,90.04
2023-02-22T00:44:03.539Z,89.92
2023-02-22T00:46:19.849Z,89.58
2023-02-22T00:48:36.164Z,89.84
2023-02-22T00:50:52.430Z,89.91
2023-02-22T00:53:08.729Z,89.91
2023-02-22T00:55:25.013Z,90.16
2023-02-22T00:57:41.317Z,90.17
2023-02-22T00:59:57.587Z,90.61
2023-02-22T01:02:13.999Z,90.24
2023-02-22T01:04:30.371Z,90.40
2023-02-22T01:06:46.678Z,90.21
2023-02-22T01:09:02.968Z,90.08
2023-02-22T01:11:19.350Z,90.17
2023-02-22T01:13:35.644Z,90.28
2023-02-22T01:15:51.956Z,89.89
2023-02-22T01:18:08.262Z,90.22
2023-02-22T01:20:24.599Z,90.23
2023-02-22T01:22:40.878Z,89.92
2023-02-22T01:24:57.179Z,90.04
2023-02-22T01:27:13.560Z,90.05
2023-02-22T01:29:29.865Z,89.73
2023-02-22T01:31:46.164Z,89.82
2023-02-22T01:34:02.501Z,89.78
2023-02-22T01:36:18.809Z,89.63
2023-02-22T01:38:35.160Z,89.95
2023-02-22T01:40:51.431Z,90.07
2023-02-22T01:43:07.720Z,90.69
2023-02-22T01:45:24.028Z,90.48
2023-02-22T01:47:40.381Z,90.65
2023-02-22T01:49:56.664Z,90.46
2023-02-22T01:52:12.971Z,90.12
2023-02-22T01:54:29.210Z,90.56
2023-02-22T01:56:45.517Z,90.64
2023-02-22T01:59:01.805Z,90.88
2023-02-22T02:01:18.496Z,90.80
2023-02-22T02:03:35.016Z,90.78
2023-02-22T02:05:51.374Z,90.56
2023-02-22T02:08:07.638Z,90.83
2023-02-22T02:10:23.931Z,90.65
2023-02-22T02:12:40.236Z,90.64
2023-02-22T02:14:56.566Z,90.66
2023-02-22T02:17:12.856Z,90.99
2023-02-22T02:19:29.137Z,91.04
2023-02-22T02:21:45.410Z,91.24
2023-02-22T02:24:01.719Z,90.80
2023-02-22T02:26:18.020Z,91.28
2023-02-22T02:28:34.337Z,91.04
2023-02-22T02:30:50.641Z,91.28
2023-02-22T02:33:06.964Z,90.98
2023-02-22T02:35:23.250Z,91.11
2023-02-22T02:37:39.527Z,90.86
2023-02-22T02:39:55.822Z,90.90
2023-02-22T02:42:12.129Z,90.55
2023-02-22T02:44:28.415Z,91.16
2023-02-22T02:46:44.675Z,91.12
2023-02-22T02:49:01.160Z,91.19
2023-02-22T02:51:17.642Z,91.36
2023-02-22T02:53:34.105Z,91.20
2023-02-22T02:55:50.369Z,90.95
2023-02-22T02:58:06.769Z,91.02
2023-02-22T03:00:23.102Z,91.17
2023-02-22T03:02:39.568Z,91.11
2023-02-22T03:04:55.881Z,90.94
2023-02-22T03:07:12.188Z,91.40
2023-02-22T03:09:28.616Z,91.61
2023-02-22T03:11:44.855Z,91.34
2023-02-22T03:14:01.167Z,91.11
2023-02-22T03:16:17.468Z,91.27
2023-02-22T03:18:33.824Z,91.35
2023-02-22T03:20:50.092Z,91.20
2023-02-22T03:23:06.359Z,90.99
2023-02-22T03:25:22.648Z,91.54
2023-02-22T03:27:38.957Z,91.38
2023-02-22T03:29:55.231Z,91.05
2023-02-22T03:32:11.564Z,91.04
2023-02-22T03:34:28.006Z,91.15
2023-02-22T03:36:44.281Z,90.96
2023-02-22T03:39:00.515Z,91.17
2023-02-22T03:41:17.026Z,91.18
2023-02-22T03:43:33.521Z,91.30
2023-02-22T03:45:49.849Z,91.28
2023-02-22T03:48:06.137Z,91.26
2023-02-22T03:50:22.391Z,91.64
2023-02-22T03:52:38.653Z,91.61
2023-02-22T03:54:55.054Z,91.43
2023-02-22T03:57:11.341Z,91.36
2023-02-22T03:59:27.779Z,91.29
2023-02-22T04:01:44.112Z,91.42
2023-02-22T04:04:00.441Z,91.20
2023-02-22T04:06:16.684Z,90.90
2023-02-22T04:08:32.963Z,91.27
2023-02-22T04:10:49.215Z,91.39
2023-02-22T04:13:05.534Z,91.71
2023-02-22T04:15:21.789Z,91.22
2023-02-22T04:17:38.041Z,91.29
2023-02-22T04:19:54.344Z,91.62
2023-02-22T04:22:10.650Z,91.13
2023-02-22T04:24:27.738Z,91.42
2023-02-22T04:26:45.324Z,90.94
2023-02-22T04:29:01.584Z,91.04
2023-02-22T04:31:18.138Z,91.23
2023-02-22T04:33:34.612Z,91.41
2023-02-22T04:35:50.888Z,90.86
2023-02-22T04:38:07.164Z,90.72
2023-02-22T04:40:23.477Z,90.67
2023-02-22T04:42:39.722Z,91.17
2023-02-22T04:44:55.992Z,91.05
2023-02-22T04:47:12.260Z,91.15
2023-02-22T04:49:28.533Z,90.98
2023-02-22T04:51:44.789Z,91.34
2023-02-22T04:54:01.056Z,91.54
2023-02-22T04:56:17.339Z,91.04
2023-02-22T04:58:33.800Z,91.08
2023-02-22T05:00:50.099Z,91.61
2023-02-22T05:03:06.407Z,91.68
2023-02-22T05:05:22.667Z,91.29
2023-02-22T05:07:38.948Z,91.56
2023-02-22T05:09:55.200Z,91.36
2023-02-22T05:12:11.474Z,91.26
2023-02-22T05:14:27.734Z,91.58
2023-02-22T05:16:44.052Z,91.72
2023-02-22T05:19:00.366Z,91.56
2023-02-22T05:21:16.870Z,91.56
2023-02-22T05:23:33.303Z,91.35
2023-02-22T05:25:49.596Z,91.49
2023-02-22T05:28:05.906Z,91.23
2023-02-22T05:30:22.170Z,91.12
2023-02-22T05:32:38.461Z,91.14
2023-02-22T05:34:54.753Z,91.79
2023-02-22T05:37:11.126Z,91.39
2023-02-22T05:39:27.395Z,91.37
2023-02-22T05:41:43.659Z,91.80
2023-02-22T05:43:59.986Z,91.00
2023-02-22T05:46:16.266Z,90.55
2023-02-22T05:48:32.557Z,91.06
2023-02-22T05:50:48.818Z,90.85
2023-02-22T05:53:05.121Z,91.29
2023-02-22T05:55:21.414Z,90.89
2023-02-22T05:57:37.720Z,90.91
2023-02-22T05:59:54.019Z,90.91
2023-02-22T06:02:10.374Z,91.14
2023-02-22T06:04:26.656Z,91.02
2023-02-22T06:06:42.914Z,91.14
2023-02-22T06:08:59.184Z,91.12
2023-02-22T06:11:15.752Z,91.23
2023-02-22T06:13:32.304Z,90.64
2023-02-22T06:15:48.590Z,91.18
2023-02-22T06:18:04.873Z,90.93
2023-02-22T06:20:21.173Z,90.84
2023-02-22T06:22:37.429Z,90.63
2023-02-22T06:24:55.098Z,91.13
2023-02-22T06:27:11.436Z,90.81
2023-02-22T06:29:27.751Z,90.88
2023-02-22T06:31:44.102Z,90.60
2023-02-22T06:34:00.398Z,90.31
2023-02-22T06:36:16.653Z,90.34
2023-02-22T06:38:32.975Z,91.23
2023-02-22T06:40:49.275Z,91.28
2023-02-22T06:43:05.540Z,91.12
2023-02-22T06:45:21.898Z,91.30
2023-02-22T06:47:38.289Z,91.08
2023-02-22T06:49:54.565Z,90.81
2023-02-22T06:52:10.987Z,91.09
2023-02-22T06:54:27.235Z,91.43
2023-02-22T06:56:43.517Z,90.82
2023-02-22T06:59:02.481Z,91.44
2023-02-22T07:01:19.216Z,91.16
2023-02-22T07:03:35.742Z,91.51
2023-02-22T07:05:52.126Z,91.13
2023-02-22T07:08:08.502Z,91.44
2023-02-22T07:10:24.793Z,91.32
2023-02-22T07:12:41.059Z,91.79
2023-02-22T07:14:57.415Z,91.10
2023-02-22T07:17:13.681Z,91.26
2023-02-22T07:19:29.958Z,91.15
2023-02-22T07:21:46.216Z,91.74
2023-02-22T07:24:04.567Z,91.37
2023-02-22T07:26:21.710Z,91.77
2023-02-22T07:28:37.993Z,90.96
2023-02-22T07:30:54.286Z,90.45
2023-02-22T07:33:10.656Z,90.72
2023-02-22T07:35:26.957Z,90.62
2023-02-22T07:37:43.224Z,90.90
2023-02-22T07:39:59.591Z,90.85
2023-02-22T07:42:15.916Z,90.09
2023-02-22T07:44:32.202Z,90.36
2023-02-22T07:46:48.462Z,90.61
2023-02-22T07:49:04.727Z,90.81
2023-02-22T07:51:21.016Z,90.66
2023-02-22T07:53:37.286Z,90.62
2023-02-22T07:55:53.542Z,90.70
2023-02-22T07:58:09.801Z,90.23
2023-02-22T08:00:26.149Z,90.17
2023-02-22T08:02:42.488Z,90.80
2023-02-22T08:04:58.789Z,90.53
2023-02-22T08:07:15.216Z,90.48
2023-02-22T08:09:31.538Z,90.74
2023-02-22T08:11:47.825Z,91.02
2023-02-22T08:14:04.098Z,91.01
2023-02-22T08:16:20.376Z,91.18
2023-02-22T08:18:36.977Z,91.03
2023-02-22T08:20:53.261Z,91.25
2023-02-22T08:23:09.538Z,91.33
2023-02-22T08:25:25.769Z,91.36
2023-02-22T08:27:42.028Z,91.43
2023-02-22T08:29:58.276Z,91.32
2023-02-22T08:32:14.580Z,91.17
2023-02-22T08:34:30.965Z,91.36
2023-02-22T08:36:47.428Z,90.44
2023-02-22T08:39:03.720Z,90.55
2023-02-22T08:41:20.043Z,89.98
2023-02-22T08:43:36.348Z,89.71
2023-02-22T08:45:52.899Z,89.15
2023-02-22T08:48:09.905Z,88.86
2023-02-22T08:50:26.182Z,87.89
2023-02-22T08:52:42.499Z,88.38
2023-02-22T08:54:58.934Z,89.25
2023-02-22T08:57:15.203Z,89.19
2023-02-22T08:59:31.481Z,88.50
2023-02-22T09:01:47.744Z,88.62
2023-02-22T09:04:04.031Z,89.07
2023-02-22T09:06:20.391Z,89.12
2023-02-22T09:08:36.701Z,88.20
2023-02-22T09:10:53.067Z,88.32
2023-02-22T09:13:09.403Z,87.44
2023-02-22T09:15:25.688Z,87.71
2023-02-22T09:17:41.975Z,87.74
2023-02-22T09:19:58.249Z,88.48
2023-02-22T09:22:14.558Z,87.10
2023-02-22T09:24:30.800Z,86.98
2023-02-22T09:26:47.057Z,85.50
2023-02-22T09:29:03.329Z,85.81
2023-02-22T09:31:20.194Z,85.44
2023-02-22T09:33:36.786Z,85.62
2023-02-22T09:35:53.048Z,85.26
2023-02-22T09:38:09.338Z,84.62
2023-02-22T09:40:25.634Z,83.31
2023-02-22T09:42:42.097Z,83.25
2023-02-22T09:44:58.417Z,82.75
2023-02-22T09:47:14.700Z,81.83
2023-02-22T09:49:31.066Z,81.46
2023-02-22T09:51:47.313Z,81.53
2023-02-22T09:54:03.565Z,81.98
2023-02-22T09:56:20.056Z,81.30
2023-02-22T09:58:36.552Z,80.38
2023-02-22T10:00:52.902Z,81.15
2023-02-22T10:03:09.153Z,81.02
2023-02-22T10:05:25.461Z,81.43
2023-02-22T10:07:41.777Z,81.52
2023-02-22T10:09:58.038Z,81.93
2023-02-22T10:12:14.343Z,80.80
2023-02-22T10:14:30.620Z,81.40
2023-02-22T10:16:46.980Z,80.66
2023-02-22T10:19:03.283Z,80.24
2023-02-22T10:21:19.573Z,80.94
2023-02-22T10:23:35.908Z,79.70
2023-02-22T10:25:52.260Z,79.55
2023-02-22T10:28:08.504Z,79.55
2023-02-22T10:30:25.776Z,78.89
2023-02-22T10:32:42.207Z,77.77
2023-02-22T10:34:58.496Z,76.95
2023-02-22T10:37:14.818Z,76.52
2023-02-22T10:39:31.179Z,76.03
2023-02-22T10:41:47.500Z,76.83
2023-02-22T10:44:03.833Z,74.93
2023-02-22T10:46:20.594Z,74.71
2023-02-22T10:48:36.961Z,73.27
2023-02-22T10:50:53.269Z,71.76
2023-02-22T10:53:09.578Z,71.73
2023-02-22T10:55:25.878Z,72.28
2023-02-22T10:57:42.165Z,70.73
2023-02-22T10:59:58.457Z,71.10
2023-02-22T11:02:14.947Z,70.82
2023-02-22T11:04:31.296Z,69.70
2023-02-22T11:06:47.553Z,69.78
2023-02-22T11:09:03.841Z,69.97
2023-02-22T11:11:20.147Z,69.71
2023-02-22T11:13:36.442Z,69.47
2023-02-22T11:15:52.702Z,69.46
2023-02-22T11:18:08.992Z,68.80
2023-02-22T11:20:25.326Z,68.49
2023-02-22T11:22:41.659Z,67.78
2023-02-22T11:24:57.932Z,67.51
2023-02-22T11:27:14.210Z,68.15
2023-02-22T11:29:30.481Z,67.76
2023-02-22T11:31:46.770Z,67.26
2023-02-22T11:34:03.270Z,66.43
2023-02-22T11:36:19.531Z,65.51
2023-02-22T11:38:35.846Z,66.02
2023-02-22T11:40:52.102Z,64.72
2023-02-22T11:43:08.392Z,65.21
2023-02-22T11:45:24.651Z,65.43
2023-02-22T11:47:40.991Z,64.48
2023-02-22T11:49:57.237Z,65.79
2023-02-22T11:52:13.515Z,63.34
2023-02-22T11:54:29.764Z,64.44
2023-02-22T11:56:46.105Z,65.69
2023-02-22T11:59:02.520Z,66.20
2023-02-22T12:01:18.780Z,66.13
2023-02-22T12:03:35.105Z,65.90
2023-02-22T12:05:51.457Z,65.31
2023-02-22T12:08:18.930Z,65.94
2023-02-22T12:10:36.192Z,65.79
2023-02-22T12:12:52.466Z,64.65
2023-02-22T12:15:08.776Z,65.34
2023-02-22T12:17:25.048Z,65.13
2023-02-22T12:19:41.353Z,64.34
2023-02-22T12:21:57.636Z,63.78
2023-02-22T12:24:13.974Z,63.85
2023-02-22T12:26:30.257Z,66.10
2023-02-22T12:28:46.729Z,66.88
2023-02-22T12:31:03.034Z,65.60
2023-02-22T12:33:19.408Z,66.34
2023-02-22T12:35:35.724Z,64.94
2023-02-22T12:37:52.011Z,67.25
2023-02-22T12:40:08.388Z,66.18
2023-02-22T12:42:24.831Z,66.60
2023-02-22T12:44:41.125Z,66.93
2023-02-22T12:46:57.400Z,65.33
2023-02-22T12:49:13.653Z,66.66
2023-02-22T12:51:29.988Z,64.55
2023-02-22T12:53:46.272Z,65.55
2023-02-22T12:56:02.535Z,64.57
2023-02-22T12:58:19.103Z,64.37
2023-02-22T13:00:35.440Z,64.13
2023-02-22T13:02:51.904Z,64.79
2023-02-22T13:05:08.238Z,65.65
2023-02-22T13:07:24.617Z,65.55
2023-02-22T13:09:40.921Z,63.59
2023-02-22T13:11:57.212Z,64.64
2023-02-22T13:14:13.494Z,63.34
2023-02-22T13:16:29.829Z,65.37
2023-02-22T13:18:46.181Z,65.69
2023-02-22T13:21:02.506Z,65.25
2023-02-22T13:23:18.784Z,65.85
2023-02-22T13:25:35.074Z,64.98
2023-02-22T13:27:51.405Z,65.91
2023-02-22T13:30:07.690Z,63.93
2023-02-22T13:32:24.228Z,64.72
2023-02-22T13:34:40.576Z,64.21
2023-02-22T13:36:56.862Z,66.16
2023-02-22T13:39:13.120Z,64.62
2023-02-22T13:41:29.370Z,65.15
2023-02-22T13:43:45.737Z,65.57
2023-02-22T13:46:02.135Z,64.60
2023-02-22T13:48:18.446Z,65.03
2023-02-22T13:50:34.750Z,63.78
2023-02-22T13:52:51.048Z,64.33
2023-02-22T13:55:07.329Z,64.69
2023-02-22T13:57:23.618Z,65.85
2023-02-22T13:59:39.870Z,65.28
2023-02-22T14:01:56.200Z,65.54
2023-02-22T14:04:12.601Z,65.79
2023-02-22T14:06:28.857Z,66.83
2023-02-22T14:08:45.111Z,67.34
2023-02-22T14:11:01.384Z,66.07
2023-02-22T14:13:17.719Z,65.75
2023-02-22T14:15:34.085Z,67.04
2023-02-22T14:17:50.383Z,67.02
2023-02-22T14:20:06.701Z,67.78
2023-02-22T14:22:23.004Z,68.28
2023-02-22T14:24:39.256Z,68.79
2023-02-22T14:26:55.538Z,68.34
2023-02-22T14:29:11.790Z,68.99
2023-02-22T14:31:37.272Z,70.20
2023-02-22T14:33:53.770Z,68.91
2023-02-22T14:36:10.036Z,69.17
2023-02-22T14:38:26.296Z,70.36
2023-02-22T14:40:42.591Z,70.69
2023-02-22T14:42:58.865Z,70.50
2023-02-22T14:45:15.136Z,70.23
2023-02-22T14:47:31.431Z,69.11
2023-02-22T14:49:47.758Z,69.71
2023-02-22T14:52:04.019Z,70.16
2023-02-22T14:54:20.268Z,69.93
2023-02-22T14:56:36.572Z,70.55
2023-02-22T14:58:52.875Z,69.08
2023-02-22T15:01:09.167Z,70.86
2023-02-22T15:03:25.445Z,70.34
2023-02-22T15:05:41.711Z,70.03
2023-02-22T15:07:58.034Z,70.81
2023-02-22T15:10:14.335Z,69.47
2023-02-22T15:12:30.652Z,70.63
2023-02-22T15:14:46.958Z,69.51
2023-02-22T15:17:03.250Z,70.17
2023-02-22T15:19:21.026Z,69.37
2023-02-22T15:21:37.312Z,69.47
2023-02-22T15:23:53.579Z,69.96
2023-02-22T15:26:09.978Z,70.55
2023-02-22T15:28:26.287Z,71.21
2023-02-22T15:30:42.613Z,71.61
2023-02-22T15:33:04.467Z,71.30
2023-02-22T15:35:21.153Z,70.82
2023-02-22T15:37:37.418Z,70.89
2023-02-22T15:39:53.674Z,71.54
2023-02-22T15:42:09.943Z,71.70
2023-02-22T15:44:26.258Z,70.61
2023-02-22T15:46:42.507Z,72.12
2023-02-22T15:48:58.811Z,71.36
2023-02-22T15:51:15.500Z,71.91
2023-02-22T15:53:32.058Z,71.41
2023-02-22T15:55:48.342Z,71.28
2023-02-22T15:58:04.622Z,71.79
2023-02-22T16:00:20.899Z,72.50
2023-02-22T16:02:37.251Z,71.38
2023-02-22T16:04:59.620Z,71.48
2023-02-22T16:07:16.242Z,71.44
2023-02-22T16:09:32.738Z,72.11
2023-02-22T16:11:49.061Z,73.00
2023-02-22T16:14:05.388Z,72.80
2023-02-22T16:16:21.707Z,72.43
2023-02-22T16:18:37.989Z,72.77
2023-02-22T16:20:54.305Z,73.34
2023-02-22T16:23:10.616Z,73.54
2023-02-22T16:25:26.911Z,74.10
2023-02-22T16:27:43.399Z,73.87
2023-02-22T16:29:59.795Z,73.58
2023-02-22T16:32:16.161Z,73.72
2023-02-22T16:34:32.477Z,74.32
2023-02-22T16:36:48.724Z,74.91
2023-02-22T16:39:05.062Z,74.43
2023-02-22T16:41:21.481Z,74.50
2023-02-22T16:43:37.851Z,75.25
2023-02-22T16:45:54.228Z,75.87
2023-02-22T16:48:10.539Z,76.30
2023-02-22T16:50:26.826Z,76.19
2023-02-22T16:52:43.075Z,76.46
2023-02-22T16:54:59.377Z,76.49
2023-02-22T16:57:15.699Z,77.20
2023-02-22T16:59:32.029Z,77.08
2023-02-22T17:01:48.335Z,77.21
2023-02-22T17:04:04.617Z,77.34
2023-02-22T17:06:20.932Z,77.64
2023-02-22T17:08:37.173Z,77.67
2023-02-22T17:10:53.453Z,77.93
2023-02-22T17:13:21.892Z,78.31
2023-02-22T17:15:40.058Z,78.49
2023-02-22T17:17:56.386Z,78.28
2023-02-22T17:20:12.678Z,78.64
2023-02-22T17:22:28.939Z,79.52
2023-02-22T17:24:45.388Z,79.47
2023-02-22T17:27:01.667Z,79.35
2023-02-22T17:29:17.949Z,79.82
2023-02-22T17:31:34.263Z,80.24
2023-02-22T17:33:50.605Z,79.97
2023-02-22T17:36:06.938Z,80.50
2023-02-22T17:38:23.230Z,81.12
2023-02-22T17:40:39.531Z,81.57
2023-02-22T17:42:55.890Z,81.92
2023-02-22T17:45:12.140Z,81.59
2023-02-22T17:47:28.436Z,82.00
2023-02-22T17:49:44.762Z,82.34
2023-02-22T17:52:01.203Z,82.85
2023-02-22T17:54:17.519Z,82.56
2023-02-22T17:56:33.775Z,82.55
2023-02-22T17:58:50.142Z,83.80
2023-02-22T18:01:06.946Z,83.64
2023-02-22T18:03:23.598Z,83.71
2023-02-22T18:05:40.226Z,83.96
2023-02-22T18:07:56.515Z,84.06
2023-02-22T18:10:13.290Z,84.42
2023-02-22T18:12:29.748Z,84.44
2023-02-22T18:14:46.515Z,84.98
2023-02-22T18:17:02.966Z,84.49
2023-02-22T18:19:22.090Z,85.18
2023-02-22T18:21:39.830Z,85.46
2023-02-22T18:23:56.281Z,85.50
2023-02-22T18:26:12.700Z,85.47
2023-02-22T18:28:29.228Z,85.97
2023-02-22T18:30:45.567Z,85.60
2023-02-22T18:33:02.267Z,85.08
2023-02-22T18:35:18.730Z,86.33
2023-02-22T18:37:35.487Z,85.51
2023-02-22T18:39:52.197Z,85.65
2023-02-22T18:42:08.868Z,85.58
2023-02-22T18:44:25.176Z,85.79
2023-02-22T18:46:41.632Z,86.02
2023-02-22T18:48:58.013Z,86.11
2023-02-22T18:51:14.620Z,86.02
2023-02-22T18:53:31.054Z,87.02
2023-02-22T18:55:47.767Z,86.80
2023-02-22T18:58:04.225Z,86.19
2023-02-22T19:00:20.571Z,87.09
2023-02-22T19:02:37.016Z,87.08
2023-02-22T19:04:53.732Z,86.32
2023-02-22T19:07:10.066Z,86.79
2023-02-22T19:09:26.480Z,87.27
2023-02-22T19:11:42.809Z,86.78
2023-02-22T19:13:59.528Z,87.17
2023-02-22T19:16:16.126Z,88.30
2023-02-22T19:18:32.905Z,88.43
2023-02-22T19:20:49.802Z,87.15
2023-02-22T19:23:06.514Z,87.20
2023-02-22T19:25:22.925Z,88.51
2023-02-22T19:27:39.347Z,88.01
2023-02-22T19:29:55.658Z,88.72
2023-02-22T19:32:12.346Z,88.57
2023-02-22T19:34:28.728Z,88.75
2023-02-22T19:36:45.170Z,89.03
2023-02-22T19:39:01.665Z,89.16
2023-02-22T19:41:18.539Z,88.19
2023-02-22T19:43:35.157Z,88.64
2023-02-22T19:45:51.918Z,89.49
2023-02-22T19:48:08.246Z,89.22
2023-02-22T19:50:24.884Z,89.87
2023-02-22T19:52:41.201Z,89.36
2023-02-22T19:54:57.609Z,89.26
2023-02-22T19:57:14.051Z,89.31
2023-02-22T19:59:30.427Z,88.94
2023-02-22T20:01:46.803Z,90.25
2023-02-22T20:04:03.608Z,90.53
2023-02-22T20:06:20.295Z,89.30
2023-02-22T20:08:36.723Z,90.42
2023-02-22T20:10:53.082Z,90.52
2023-02-22T20:13:09.510Z,89.40
2023-02-22T20:15:25.942Z,90.42
2023-02-22T20:17:42.602Z,89.65
2023-02-22T20:19:59.289Z,90.43
2023-02-22T20:22:15.662Z,90.67
2023-02-22T20:24:32.343Z,90.83
2023-02-22T20:26:49.023Z,91.34
2023-02-22T20:29:05.810Z,91.54
2023-02-22T20:31:22.330Z,92.20
2023-02-22T20:33:38.857Z,90.52
2023-02-22T20:35:55.605Z,90.58
2023-02-22T20:38:12.031Z,91.62
2023-02-22T20:40:28.468Z,90.99
2023-02-22T20:42:44.815Z,92.15
2023-02-22T20:45:01.245Z,92.51
2023-02-22T20:47:17.720Z,92.11
2023-02-22T20:49:34.019Z,93.49
2023-02-22T20:51:50.810Z,93.32
2023-02-22T20:54:07.561Z,93.39
2023-02-22T20:56:23.969Z,94.78
2023-02-22T20:58:40.259Z,94.00
2023-02-22T21:00:56.899Z,95.39
2023-02-22T21:03:13.371Z,93.96
2023-02-22T21:05:29.733Z,94.43
2023-02-22T21:07:46.661Z,95.72
2023-02-22T21:10:03.512Z,96.06
2023-02-22T21:12:20.336Z,95.20
2023-02-22T21:14:36.721Z,95.56
2023-02-22T21:16:53.140Z,95.24
2023-02-22T21:19:09.793Z,95.11
2023-02-22T21:21:26.744Z,96.69
2023-02-22T21:23:43.068Z,95.98
2023-02-22T21:25:59.801Z,96.32
2023-02-22T21:28:16.190Z,97.32
2023-02-22T21:30:32.840Z,96.53
2023-02-22T21:32:49.688Z,97.21
2023-02-22T21:35:06.287Z,97.04
2023-02-22T21:37:22.644Z,96.71
2023-02-22T21:39:38.995Z,97.54
2023-02-22T21:41:55.788Z,97.39
2023-02-22T21:44:12.504Z,98.03
2023-02-22T21:46:29.260Z,98.36
2023-02-22T21:48:45.773Z,97.79
2023-02-22T21:51:02.265Z,97.78
2023-02-22T21:53:18.985Z,98.24
2023-02-22T21:55:35.283Z,97.42
2023-02-22T21:57:52.214Z,98.03
2023-02-22T22:00:08.998Z,97.85
2023-02-22T22:02:25.551Z,98.25
2023-02-22T22:04:42.380Z,99.01
2023-02-22T22:06:59.005Z,99.41
2023-02-22T22:09:15.777Z,98.68
2023-02-22T22:11:33.451Z,99.70
2023-02-22T22:13:50.606Z,99.21
2023-02-22T22:16:07.755Z,99.46
2023-02-22T22:18:27.684Z,98.77
2023-02-22T22:20:45.067Z,99.34
2023-02-22T22:23:02.508Z,98.98
2023-02-22T22:25:19.059Z,98.38
2023-02-22T22:27:35.830Z,98.63
2023-02-22T22:29:52.210Z,98.69
2023-02-22T22:32:09.646Z,99.35
2023-02-22T22:34:26.249Z,99.40
2023-02-22T22:36:42.998Z,100.00
2023-02-22T22:39:00.048Z,100.00
2023-02-22T22:41:18.069Z,98.81
2023-02-22T22:43:34.591Z,98.51
2023-02-22T22:45:51.296Z,97.88
2023-02-22T22:48:07.634Z,98.43
2023-02-22T22:50:24.544Z,98.15
2023-02-22T22:52:41.123Z,98.53
2023-02-22T22:54:57.549Z,99.16
2023-02-22T22:57:13.877Z,100.00
2023-02-22T22:59:30.642Z,100.00
2023-02-22T23:01:47.457Z,99.96
2023-02-22T23:04:04.286Z,100.00
2023-02-22T23:06:20.664Z,99.89
2023-02-22T23:08:37.062Z,98.93
2023-02-22T23:10:53.576Z,99.62
2023-02-22T23:13:09.941Z,99.60
2023-02-22T23:15:26.303Z,99.88
2023-02-22T23:17:42.982Z,100.00
2023-02-22T23:19:59.303Z,99.99
2023-02-22T23:22:18.167Z,100.00
2023-02-22T23:24:34.597Z,100.00
2023-02-22T23:26:51.328Z,100.00
2023-02-22T23:29:07.926Z,100.00
2023-02-22T23:31:24.690Z,100.00
2023-02-22T23:33:41.512Z,99.96
2023-02-22T23:35:58.068Z,100.00
2023-02-22T23:38:14.798Z,100.00
2023-02-22T23:40:31.161Z,100.00
2023-02-22T23:42:47.650Z,100.00
2023-02-22T23:45:04.426Z,100.00
2023-02-22T23:47:21.053Z,100.00
2023-02-22T23:49:37.599Z,100.00
2023-02-22T23:51:54.145Z,100.00
2023-02-22T23:54:10.567Z,100.00
2023-02-22T23:56:27.123Z,100.00
2023-02-22T23:58:43.821Z,100.00
